createdAt,value
2022-12-06T00:01:18.664Z,-9.90
2022-12-06T00:03:48.721Z,-9.89
2022-12-06T00:06:20.117Z,-9.90
2022-12-06T00:08:50.429Z,-9.92
2022-12-06T00:11:20.160Z,-9.93
2022-12-06T00:13:48.898Z,-9.93
2022-12-06T00:16:18.641Z,-9.95
2022-12-06T00:18:48.181Z,-9.96
2022-12-06T00:21:18.896Z,-9.98
2022-12-06T00:23:50.868Z,-9.99
2022-12-06T00:26:20.114Z,-9.97
2022-12-06T00:28:48.565Z,-9.93
2022-12-06T00:31:18.461Z,-9.96
2022-12-06T00:33:46.814Z,-9.97
2022-12-06T00:36:18.322Z,-9.92
2022-12-06T00:38:47.579Z,-9.92
2022-12-06T00:41:19.144Z,-9.92
2022-12-06T00:43:48.249Z,-9.99
2022-12-06T00:46:19.155Z,-9.97
2022-12-06T00:48:48.014Z,-9.92
2022-12-06T00:51:18.312Z,-9.94
2022-12-06T00:53:47.009Z,-9.93
2022-12-06T00:56:17.222Z,-9.90
2022-12-06T00:58:45.873Z,-9.81
2022-12-06T01:01:16.026Z,-9.76
2022-12-06T01:03:45.364Z,-9.79
2022-12-06T01:06:15.034Z,-9.84
2022-12-06T01:08:43.824Z,-9.87
2022-12-06T01:11:14.403Z,-9.84
2022-12-06T01:13:44.530Z,-9.86
2022-12-06T01:16:15.323Z,-9.83
2022-12-06T01:18:44.778Z,-9.80
2022-12-06T01:21:15.108Z,-9.85
2022-12-06T01:23:44.125Z,-9.96
2022-12-06T01:26:16.585Z,-9.95
2022-12-06T01:28:46.876Z,-9.99
2022-12-06T01:31:15.486Z,-10.20
2022-12-06T01:33:44.397Z,-10.25
2022-12-06T01:36:18.021Z,-10.27
2022-12-06T01:38:46.571Z,-10.25
2022-12-06T01:41:14.853Z,-10.15
2022-12-06T01:43:46.106Z,-10.36
2022-12-06T01:46:22.021Z,-10.55
2022-12-06T01:48:53.465Z,-10.53
2022-12-06T01:51:22.568Z,-10.61
2022-12-06T01:53:52.372Z,-10.85
2022-12-06T01:56:20.718Z,-10.86
2022-12-06T01:58:52.623Z,-10.92
2022-12-06T02:01:20.916Z,-10.92
2022-12-06T02:03:49.816Z,-10.95
2022-12-06T02:06:18.661Z,-10.90
2022-12-06T02:08:47.850Z,-10.69
2022-12-06T02:11:16.063Z,-10.54
2022-12-06T02:13:44.453Z,-10.44
2022-12-06T02:16:24.376Z,-10.53
2022-12-06T02:18:57.443Z,-10.50
2022-12-06T02:21:33.780Z,-10.37
2022-12-06T02:24:43.804Z,-10.39
2022-12-06T02:27:39.392Z,-10.24
2022-12-06T02:30:18.380Z,-10.20
2022-12-06T02:32:55.068Z,-10.33
2022-12-06T02:35:29.885Z,-10.29
2022-12-06T02:38:01.294Z,-10.25
2022-12-06T02:40:32.980Z,-10.28
2022-12-06T02:43:03.863Z,-10.17
2022-12-06T02:45:36.140Z,-10.24
2022-12-06T02:48:06.765Z,-10.26
2022-12-06T02:50:39.020Z,-10.23
2022-12-06T02:53:09.643Z,-10.17
2022-12-06T02:55:38.733Z,-10.25
2022-12-06T02:58:07.024Z,-10.16
2022-12-06T03:00:38.120Z,-10.10
2022-12-06T03:03:36.457Z,-10.11
2022-12-06T03:06:43.017Z,-10.03
2022-12-06T03:09:20.941Z,-9.98
2022-12-06T03:11:56.094Z,-9.97
2022-12-06T03:14:25.885Z,-9.94
2022-12-06T03:16:59.312Z,-9.87
2022-12-06T03:19:30.578Z,-9.86
2022-12-06T03:22:01.763Z,-9.82
2022-12-06T03:24:32.488Z,-9.80
2022-12-06T03:27:03.312Z,-9.73
2022-12-06T03:29:32.628Z,-9.67
2022-12-06T03:32:02.709Z,-9.65
2022-12-06T03:34:34.618Z,-9.63
2022-12-06T03:37:03.961Z,-9.65
2022-12-06T03:39:37.061Z,-9.64
2022-12-06T03:42:05.686Z,-9.65
2022-12-06T03:44:34.950Z,-9.60
2022-12-06T03:47:07.653Z,-9.59
2022-12-06T03:49:41.209Z,-9.63
2022-12-06T03:52:10.315Z,-9.60
2022-12-06T03:54:41.160Z,-9.63
2022-12-06T03:57:10.952Z,-9.66
2022-12-06T03:59:39.169Z,-9.63
2022-12-06T04:02:07.421Z,-9.73
2022-12-06T04:04:37.324Z,-9.70
2022-12-06T04:07:05.649Z,-9.71
2022-12-06T04:09:51.533Z,-9.68
2022-12-06T04:12:37.672Z,-9.66
2022-12-06T04:15:06.224Z,-9.72
2022-12-06T04:17:51.705Z,-9.69
2022-12-06T04:20:21.480Z,-9.77
2022-12-06T04:23:03.717Z,-9.78
2022-12-06T04:25:32.859Z,-9.81
2022-12-06T04:28:19.519Z,-9.76
2022-12-06T04:31:05.410Z,-9.81
2022-12-06T04:33:51.477Z,-9.78
2022-12-06T04:36:38.477Z,-9.76
2022-12-06T04:39:06.747Z,-9.84
2022-12-06T04:41:52.692Z,-9.80
2022-12-06T04:44:21.088Z,-9.79
2022-12-06T04:46:49.343Z,-9.76
2022-12-06T04:49:17.621Z,-9.70
2022-12-06T04:51:47.292Z,-9.71
2022-12-06T04:54:16.596Z,-9.69
2022-12-06T04:56:45.135Z,-9.74
2022-12-06T04:59:14.323Z,-9.77
2022-12-06T05:01:42.507Z,-9.76
2022-12-06T05:04:10.983Z,-9.80
2022-12-06T05:06:39.213Z,-9.78
2022-12-06T05:09:08.865Z,-9.81
2022-12-06T05:11:37.276Z,-9.85
2022-12-06T05:14:05.513Z,-9.88
2022-12-06T05:16:33.821Z,-9.87
2022-12-06T05:19:02.172Z,-9.90
2022-12-06T05:21:30.410Z,-9.90
2022-12-06T05:23:59.294Z,-9.93
2022-12-06T05:26:30.465Z,-9.88
2022-12-06T05:28:59.595Z,-9.88
2022-12-06T05:31:29.064Z,-9.88
2022-12-06T05:33:57.447Z,-9.78
2022-12-06T05:36:27.191Z,-9.79
2022-12-06T05:38:55.773Z,-9.87
2022-12-06T05:41:26.302Z,-9.88
2022-12-06T05:43:55.876Z,-9.95
2022-12-06T05:46:24.648Z,-9.92
2022-12-06T05:48:53.116Z,-9.87
2022-12-06T05:51:21.292Z,-9.87
2022-12-06T05:53:49.520Z,-9.94
2022-12-06T05:56:17.810Z,-9.99
2022-12-06T05:58:45.948Z,-9.98
2022-12-06T06:01:16.018Z,-10.00
2022-12-06T06:03:47.710Z,-10.02
2022-12-06T06:06:16.748Z,-10.01
2022-12-06T06:08:45.041Z,-9.97
2022-12-06T06:11:13.230Z,-9.99
2022-12-06T06:13:41.368Z,-9.97
2022-12-06T06:16:09.765Z,-10.02
2022-12-06T06:18:39.556Z,-9.95
2022-12-06T06:21:07.747Z,-9.92
2022-12-06T06:23:36.065Z,-9.83
2022-12-06T06:26:08.456Z,-9.84
2022-12-06T06:28:37.009Z,-9.76
2022-12-06T06:31:05.719Z,-9.66
2022-12-06T06:33:34.531Z,-9.71
2022-12-06T06:36:05.232Z,-9.89
2022-12-06T06:38:33.445Z,-9.79
2022-12-06T06:41:03.000Z,-9.93
2022-12-06T06:43:31.599Z,-9.77
2022-12-06T06:46:01.438Z,-9.67
2022-12-06T06:48:35.205Z,-9.61
2022-12-06T06:51:05.858Z,-9.66
2022-12-06T06:53:34.313Z,-9.68
2022-12-06T06:56:02.895Z,-9.63
2022-12-06T06:58:31.161Z,-9.66
2022-12-06T07:01:00.700Z,-9.55
2022-12-06T07:03:31.518Z,-9.66
2022-12-06T07:06:01.363Z,-9.49
2022-12-06T07:08:32.656Z,-9.42
2022-12-06T07:11:01.258Z,-9.36
2022-12-06T07:13:30.602Z,-9.34
2022-12-06T07:15:59.694Z,-9.41
2022-12-06T07:18:27.954Z,-9.16
2022-12-06T07:21:01.710Z,-9.07
2022-12-06T07:23:31.533Z,-9.06
2022-12-06T07:26:04.214Z,-8.96
2022-12-06T07:28:32.506Z,-8.94
2022-12-06T07:31:00.745Z,-8.87
2022-12-06T07:33:29.131Z,-8.81
2022-12-06T07:36:12.056Z,-8.64
2022-12-06T07:38:44.390Z,-8.69
2022-12-06T07:41:31.414Z,-8.60
2022-12-06T07:44:19.409Z,-8.94
2022-12-06T07:46:48.234Z,-8.76
2022-12-06T07:49:17.091Z,-8.93
2022-12-06T07:51:45.683Z,-8.75
2022-12-06T07:54:16.191Z,-8.69
2022-12-06T07:56:44.908Z,-8.81
2022-12-06T07:59:13.685Z,-8.51
2022-12-06T08:01:42.017Z,-8.61
2022-12-06T08:04:10.460Z,-8.89
2022-12-06T08:06:38.894Z,-8.77
2022-12-06T08:09:08.814Z,-8.48
2022-12-06T08:11:38.504Z,-7.92
2022-12-06T08:14:06.880Z,-8.34
2022-12-06T08:16:35.151Z,-7.41
2022-12-06T08:19:03.464Z,-7.01
2022-12-06T08:21:31.838Z,-8.15
2022-12-06T08:24:00.082Z,-8.29
2022-12-06T08:26:28.278Z,-8.32
2022-12-06T08:28:57.998Z,-8.30
2022-12-06T08:31:26.529Z,-8.02
2022-12-06T08:33:54.853Z,-7.90
2022-12-06T08:36:25.167Z,-8.15
2022-12-06T08:38:53.632Z,-7.70
2022-12-06T08:41:41.729Z,-7.50
2022-12-06T08:44:14.490Z,-7.41
2022-12-06T08:46:43.233Z,-7.19
2022-12-06T08:49:11.880Z,-6.81
2022-12-06T08:51:40.480Z,-6.46
2022-12-06T08:54:10.268Z,-5.38
2022-12-06T08:56:38.487Z,-5.13
2022-12-06T08:59:07.166Z,-5.98
2022-12-06T09:01:38.307Z,-6.74
2022-12-06T09:04:07.959Z,-6.93
2022-12-06T09:06:38.532Z,-6.98
2022-12-06T09:09:06.779Z,-7.15
2022-12-06T09:11:35.276Z,-7.10
2022-12-06T09:14:03.673Z,-6.91
2022-12-06T09:16:32.187Z,-6.78
2022-12-06T09:19:02.230Z,-6.80
2022-12-06T09:21:33.127Z,-6.63
2022-12-06T09:24:01.681Z,-6.29
2022-12-06T09:26:30.305Z,-6.34
2022-12-06T09:28:59.788Z,-6.16
2022-12-06T09:31:28.109Z,-5.95
2022-12-06T09:33:56.451Z,-5.64
2022-12-06T09:36:28.339Z,-5.15
2022-12-06T09:38:59.593Z,-5.00
2022-12-06T09:41:44.524Z,-5.45
2022-12-06T09:44:28.918Z,-5.31
2022-12-06T09:47:04.352Z,-5.55
2022-12-06T09:49:34.001Z,-5.99
2022-12-06T09:52:16.650Z,-6.27
2022-12-06T09:55:00.109Z,-6.34
2022-12-06T09:57:35.572Z,-6.28
2022-12-06T10:00:11.377Z,-6.37
2022-12-06T10:03:02.016Z,-6.32
2022-12-06T10:05:38.646Z,-6.32
2022-12-06T10:08:17.602Z,-6.20
2022-12-06T10:10:54.920Z,-6.24
2022-12-06T10:13:34.143Z,-6.10
2022-12-06T10:16:11.382Z,-5.97
2022-12-06T10:18:55.505Z,-5.98
2022-12-06T10:21:29.246Z,-6.01
2022-12-06T10:24:08.577Z,-6.05
2022-12-06T10:26:41.582Z,-6.03
2022-12-06T10:29:17.442Z,-6.22
2022-12-06T10:31:56.689Z,-6.04
2022-12-06T10:34:34.769Z,-6.05
2022-12-06T10:37:09.688Z,-6.08
2022-12-06T10:39:54.895Z,-6.05
2022-12-06T10:42:31.446Z,-6.01
2022-12-06T10:45:25.086Z,-5.97
2022-12-06T10:47:55.095Z,-5.99
2022-12-06T10:50:27.084Z,-5.93
2022-12-06T10:53:02.098Z,-5.94
2022-12-06T10:55:36.474Z,-5.89
2022-12-06T10:58:10.722Z,-6.01
2022-12-06T11:00:42.753Z,-5.80
2022-12-06T11:03:16.260Z,-5.92
2022-12-06T11:05:48.089Z,-5.95
2022-12-06T11:08:19.460Z,-5.81
2022-12-06T11:10:49.672Z,-5.86
2022-12-06T11:13:22.096Z,-5.91
2022-12-06T11:15:56.443Z,-5.89
2022-12-06T11:18:28.699Z,-5.92
2022-12-06T11:21:01.987Z,-6.03
2022-12-06T11:23:33.400Z,-5.86
2022-12-06T11:26:08.714Z,-5.83
2022-12-06T11:28:38.933Z,-5.80
2022-12-06T11:31:27.243Z,-5.78
2022-12-06T11:33:55.616Z,-5.76
2022-12-06T11:36:26.531Z,-5.87
2022-12-06T11:38:54.885Z,-5.80
2022-12-06T11:41:26.666Z,-5.86
2022-12-06T11:43:55.747Z,-5.84
2022-12-06T11:46:25.723Z,-5.84
2022-12-06T11:48:54.548Z,-5.92
2022-12-06T11:51:24.514Z,-5.93
2022-12-06T11:53:58.379Z,-6.02
2022-12-06T11:56:29.374Z,-5.93
2022-12-06T11:59:22.912Z,-5.88
2022-12-06T12:01:52.978Z,-5.90
2022-12-06T12:04:27.160Z,-5.93
2022-12-06T12:06:58.621Z,-6.06
2022-12-06T12:09:29.755Z,-6.04
2022-12-06T12:12:03.896Z,-6.07
2022-12-06T12:14:37.960Z,-6.19
2022-12-06T12:17:16.574Z,-6.22
2022-12-06T12:19:48.580Z,-6.17
2022-12-06T12:22:24.814Z,-6.23
2022-12-06T12:27:49.634Z,-6.24
2022-12-06T12:30:24.291Z,-6.24
2022-12-06T12:32:54.511Z,-6.21
2022-12-06T12:35:28.503Z,-6.22
2022-12-06T12:37:58.659Z,-6.21
2022-12-06T12:40:28.988Z,-6.19
2022-12-06T12:43:06.016Z,-6.19
2022-12-06T12:45:35.105Z,-6.21
2022-12-06T12:48:06.024Z,-6.23
2022-12-06T12:50:34.324Z,-6.15
2022-12-06T12:53:02.559Z,-6.13
2022-12-06T12:55:32.423Z,-6.11
2022-12-06T12:58:02.392Z,-6.17
2022-12-06T13:00:33.648Z,-6.21
2022-12-06T13:03:14.157Z,-6.25
2022-12-06T13:05:53.823Z,-6.26
2022-12-06T13:08:25.345Z,-6.22
2022-12-06T13:10:59.127Z,-6.20
2022-12-06T13:13:32.936Z,-6.09
2022-12-06T13:16:07.275Z,-6.18
2022-12-06T13:18:41.275Z,-6.22
2022-12-06T13:21:16.191Z,-6.24
2022-12-06T13:23:45.951Z,-6.22
2022-12-06T13:26:18.361Z,-6.24
2022-12-06T13:28:52.121Z,-6.27
2022-12-06T13:31:24.070Z,-6.35
2022-12-06T13:33:55.650Z,-6.32
2022-12-06T13:36:25.325Z,-6.31
2022-12-06T13:38:53.855Z,-6.33
2022-12-06T13:42:26.232Z,-6.36
2022-12-06T13:44:59.538Z,-6.37
2022-12-06T13:47:38.199Z,-6.44
2022-12-06T13:50:49.184Z,-6.52
2022-12-06T13:53:17.489Z,-6.65
2022-12-06T13:55:59.085Z,-6.72
2022-12-06T13:58:53.930Z,-6.75
2022-12-06T14:01:40.630Z,-6.78
2022-12-06T14:07:01.089Z,-6.90
2022-12-06T14:09:36.400Z,-6.95
2022-12-06T14:12:08.811Z,-7.04
2022-12-06T14:14:37.284Z,-7.00
2022-12-06T14:17:26.805Z,-7.15
2022-12-06T14:20:01.850Z,-7.11
2022-12-06T14:22:36.397Z,-7.13
2022-12-06T14:25:07.122Z,-7.16
2022-12-06T14:27:43.562Z,-7.15
2022-12-06T14:30:25.231Z,-7.19
2022-12-06T14:32:57.728Z,-7.21
2022-12-06T14:35:27.873Z,-7.22
2022-12-06T14:37:58.300Z,-7.24
2022-12-06T14:40:50.159Z,-7.21
2022-12-06T14:43:20.069Z,-7.19
2022-12-06T14:45:48.495Z,-7.27
2022-12-06T14:48:18.466Z,-7.21
2022-12-06T14:51:00.604Z,-7.22
2022-12-06T14:53:32.207Z,-7.24
2022-12-06T14:56:01.840Z,-7.25
2022-12-06T14:58:32.516Z,-7.27
2022-12-06T15:01:02.477Z,-7.32
2022-12-06T15:03:33.848Z,-7.30
2022-12-06T15:06:15.009Z,-7.29
2022-12-06T15:08:44.527Z,-7.32
2022-12-06T15:11:53.262Z,-7.41
2022-12-06T15:14:24.530Z,-7.51
2022-12-06T15:17:00.982Z,-7.45
2022-12-06T15:19:31.501Z,-7.43
2022-12-06T15:21:59.828Z,-7.48
2022-12-06T15:24:29.776Z,-7.47
2022-12-06T15:26:59.000Z,-7.46
2022-12-06T15:29:27.244Z,-7.50
2022-12-06T15:31:56.237Z,-7.52
2022-12-06T15:34:27.860Z,-7.52
2022-12-06T15:37:36.458Z,-7.56
2022-12-06T15:39:46.964Z,-7.61
2022-12-06T15:42:19.233Z,-7.62
2022-12-06T15:44:49.665Z,-7.60
2022-12-06T15:47:19.693Z,-7.66
2022-12-06T15:49:49.204Z,-7.71
2022-12-06T15:52:21.905Z,-7.68
2022-12-06T15:54:52.792Z,-7.70
2022-12-06T15:57:21.135Z,-7.73
2022-12-06T15:59:49.398Z,-7.72
2022-12-06T16:02:19.280Z,-7.75
2022-12-06T16:04:48.594Z,-7.77
2022-12-06T16:07:19.424Z,-7.76
2022-12-06T16:09:48.223Z,-7.82
2022-12-06T16:12:16.582Z,-7.80
2022-12-06T16:14:45.212Z,-7.80
2022-12-06T16:17:13.609Z,-7.81
2022-12-06T16:19:59.198Z,-7.75
2022-12-06T16:22:42.709Z,-7.72
2022-12-06T16:25:11.350Z,-7.70
2022-12-06T16:27:39.611Z,-7.72
2022-12-06T16:30:10.533Z,-7.75
2022-12-06T16:32:38.885Z,-7.76
2022-12-06T16:35:07.420Z,-7.72
2022-12-06T16:37:37.190Z,-7.66
2022-12-06T16:40:06.594Z,-7.64
2022-12-06T16:42:34.851Z,-7.64
2022-12-06T16:45:03.370Z,-7.68
2022-12-06T16:47:32.455Z,-7.68
2022-12-06T16:50:00.840Z,-7.67
2022-12-06T16:52:29.220Z,-7.69
2022-12-06T16:54:59.461Z,-7.68
2022-12-06T16:57:29.322Z,-7.71
2022-12-06T16:59:57.767Z,-7.71
2022-12-06T17:02:28.055Z,-7.71
2022-12-06T17:04:56.900Z,-7.76
2022-12-06T17:07:25.840Z,-7.80
2022-12-06T17:09:54.339Z,-7.82
2022-12-06T17:12:24.150Z,-7.81
2022-12-06T17:14:52.445Z,-7.76
2022-12-06T17:17:22.932Z,-7.78
2022-12-06T17:19:51.229Z,-7.86
2022-12-06T17:22:19.985Z,-7.82
2022-12-06T17:24:48.311Z,-7.75
2022-12-06T17:27:17.579Z,-7.74
2022-12-06T17:29:48.292Z,-7.80
2022-12-06T17:32:16.718Z,-7.84
2022-12-06T17:34:45.112Z,-7.85
2022-12-06T17:37:13.455Z,-7.86
2022-12-06T17:39:41.855Z,-7.88
2022-12-06T17:42:30.168Z,-7.93
2022-12-06T17:45:00.632Z,-7.91
2022-12-06T17:47:29.170Z,-7.81
2022-12-06T17:49:57.996Z,-7.84
2022-12-06T17:52:26.716Z,-7.87
2022-12-06T17:54:54.939Z,-7.87
2022-12-06T17:57:23.284Z,-7.87
2022-12-06T17:59:52.821Z,-7.86
2022-12-06T18:02:25.997Z,-7.86
2022-12-06T18:04:55.480Z,-7.92
2022-12-06T18:07:25.025Z,-7.95
2022-12-06T18:09:53.394Z,-7.88
2022-12-06T18:12:21.593Z,-7.84
2022-12-06T18:14:49.971Z,-7.80
2022-12-06T18:17:18.366Z,-7.74
2022-12-06T18:19:47.967Z,-7.71
2022-12-06T18:22:16.771Z,-7.72
2022-12-06T18:24:45.235Z,-7.74
2022-12-06T18:27:13.740Z,-7.71
2022-12-06T18:29:42.149Z,-7.76
2022-12-06T18:32:11.663Z,-7.72
2022-12-06T18:34:40.053Z,-7.67
2022-12-06T18:37:09.750Z,-7.67
2022-12-06T18:39:38.065Z,-7.73
2022-12-06T18:42:06.564Z,-7.69
2022-12-06T18:44:34.852Z,-7.68
2022-12-06T18:47:03.200Z,-7.71
2022-12-06T18:49:31.575Z,-7.65
2022-12-06T18:51:59.868Z,-7.72
2022-12-06T18:54:29.659Z,-7.67
2022-12-06T18:56:59.346Z,-7.76
2022-12-06T18:59:28.043Z,-7.68
2022-12-06T19:01:57.151Z,-7.69
2022-12-06T19:04:26.482Z,-7.76
2022-12-06T19:06:55.544Z,-7.72
2022-12-06T19:09:24.334Z,-7.73
2022-12-06T19:11:54.008Z,-7.71
2022-12-06T19:14:23.296Z,-7.81
2022-12-06T19:16:59.755Z,-7.85
2022-12-06T19:19:28.349Z,-7.94
2022-12-06T19:21:57.228Z,-7.94
2022-12-06T19:24:26.852Z,-7.94
2022-12-06T19:26:58.216Z,-7.96
2022-12-06T19:29:26.922Z,-7.93
2022-12-06T19:31:55.243Z,-7.93
2022-12-06T19:34:25.212Z,-7.87
2022-12-06T19:36:55.166Z,-7.91
2022-12-06T19:39:25.875Z,-7.94
2022-12-06T19:42:11.768Z,-7.96
2022-12-06T19:44:41.634Z,-8.01
2022-12-06T19:47:09.821Z,-8.05
2022-12-06T19:49:38.089Z,-8.05
2022-12-06T19:52:06.389Z,-8.04
2022-12-06T19:54:35.948Z,-8.03
2022-12-06T19:57:04.437Z,-8.13
2022-12-06T19:59:35.309Z,-8.15
2022-12-06T20:02:05.621Z,-8.14
2022-12-06T20:04:35.765Z,-8.22
2022-12-06T20:07:05.781Z,-8.21
2022-12-06T20:09:34.652Z,-8.25
2022-12-06T20:12:04.833Z,-8.33
2022-12-06T20:14:39.856Z,-8.40
2022-12-06T20:17:12.085Z,-8.48
2022-12-06T20:19:43.150Z,-8.56
2022-12-06T20:22:12.276Z,-8.61
2022-12-06T20:24:40.931Z,-8.66
2022-12-06T20:27:09.248Z,-8.69
2022-12-06T20:29:37.624Z,-8.79
2022-12-06T20:32:06.283Z,-8.88
2022-12-06T20:34:35.976Z,-8.85
2022-12-06T20:37:05.839Z,-8.83
2022-12-06T20:39:36.522Z,-8.88
2022-12-06T20:42:07.150Z,-8.93
2022-12-06T20:44:35.886Z,-8.89
2022-12-06T20:47:04.273Z,-8.97
2022-12-06T20:49:32.690Z,-9.03
2022-12-06T20:52:03.747Z,-9.08
2022-12-06T20:54:32.137Z,-9.14
2022-12-06T20:57:00.297Z,-9.16
2022-12-06T20:59:29.638Z,-9.19
2022-12-06T21:01:58.171Z,-9.24
2022-12-06T21:04:27.608Z,-9.25
2022-12-06T21:06:56.204Z,-9.24
2022-12-06T21:09:25.914Z,-9.29
2022-12-06T21:11:54.897Z,-9.26
2022-12-06T21:14:23.467Z,-9.33
2022-12-06T21:16:51.727Z,-9.36
2022-12-06T21:19:20.772Z,-9.34
2022-12-06T21:21:50.121Z,-9.42
2022-12-06T21:24:20.215Z,-9.47
2022-12-06T21:26:50.092Z,-9.49
2022-12-06T21:29:20.869Z,-9.47
2022-12-06T21:31:51.002Z,-9.47
2022-12-06T21:34:19.587Z,-9.51
2022-12-06T21:36:47.864Z,-9.55
2022-12-06T21:39:16.469Z,-9.55
2022-12-06T21:41:44.901Z,-9.58
2022-12-06T21:44:15.619Z,-9.59
2022-12-06T21:46:44.067Z,-9.56
2022-12-06T21:49:13.009Z,-9.60
2022-12-06T21:51:41.179Z,-9.61
2022-12-06T21:54:09.591Z,-9.65
2022-12-06T21:56:38.356Z,-9.63
2022-12-06T21:59:06.556Z,-9.63
2022-12-06T22:01:38.986Z,-9.62
2022-12-06T22:04:07.314Z,-9.66
2022-12-06T22:06:38.723Z,-9.71
2022-12-06T22:09:07.389Z,-9.72
2022-12-06T22:11:36.241Z,-9.64
2022-12-06T22:14:05.092Z,-9.76
2022-12-06T22:16:35.690Z,-9.75
2022-12-06T22:19:03.880Z,-9.74
2022-12-06T22:21:33.606Z,-9.79
2022-12-06T22:24:02.029Z,-9.80
2022-12-06T22:26:31.856Z,-9.76
2022-12-06T22:29:00.848Z,-9.76
2022-12-06T22:31:30.701Z,-9.81
2022-12-06T22:34:01.738Z,-9.73
2022-12-06T22:36:30.439Z,-9.80
2022-12-06T22:39:00.742Z,-9.75
2022-12-06T22:41:29.820Z,-9.71
2022-12-06T22:43:59.695Z,-9.74
2022-12-06T22:46:28.628Z,-9.79
2022-12-06T22:48:59.398Z,-9.70
2022-12-06T22:51:30.654Z,-9.74
2022-12-06T22:54:00.523Z,-9.75
2022-12-06T22:56:29.855Z,-9.75
2022-12-06T22:59:00.455Z,-9.83
2022-12-06T23:01:30.413Z,-9.83
2022-12-06T23:04:00.721Z,-9.77
2022-12-06T23:06:30.641Z,-9.74
2022-12-06T23:08:58.999Z,-9.78
2022-12-06T23:11:28.717Z,-9.78
2022-12-06T23:13:57.293Z,-9.81
2022-12-06T23:16:27.127Z,-9.80
2022-12-06T23:18:56.336Z,-9.88
2022-12-06T23:21:27.681Z,-9.85
2022-12-06T23:23:59.231Z,-9.89
2022-12-06T23:26:30.813Z,-9.84
2022-12-06T23:28:59.751Z,-9.85
2022-12-06T23:31:30.035Z,-9.86
2022-12-06T23:34:00.744Z,-9.88
2022-12-06T23:36:30.824Z,-9.89
2022-12-06T23:39:00.720Z,-9.91
2022-12-06T23:41:30.641Z,-9.92
2022-12-06T23:43:59.992Z,-9.98
2022-12-06T23:46:30.615Z,-9.94
2022-12-06T23:49:00.959Z,-9.94
2022-12-06T23:51:32.672Z,-9.99
2022-12-06T23:54:03.270Z,-10.02
2022-12-06T23:56:33.239Z,-10.04
2022-12-06T23:59:01.852Z,-10.05
